Dobrodošli na spletni strani vremenske postaje Senovo. Vse informacije so informativnega značaja, saj vremenska postaja ni del državne mreže meteoroloških postaj. OBVESTILO: Letni količini padavin navedeni na spletni strani je potrebno prišteti 98,1 mm, zaradi izgube podatkov.


Posebna pozornost v zvezi z vremenskimi dogajanji ni potrebna.    Posebna pozornost v zvezi z vremenskimi dogajanji ni potrebna.

Pogled proti Armezu več informacij Pogled proti Armezu


Lisca več informacij Lisca


Radar strel več informacij blitzortung!


Radar padavin več informacij rain snow radar


Obiščite še:

Template documentation
and downloads

And another site



Weather Underground, zgodovina - Tekstovno

Dnevni povzetek za Avgust 17, 2017 Enote:  Angleško    Metrično   Obe
« Predhodni Dan
Naslednji Dan »
Dnevni Tedenski Mesečni Letni Po meri
  Višja: Nižja: Povprečje:
Temperatura: 89.2 °F 63 °F 74.8 °F
Točka rosišča: 66.4 °F 56.5 °F 61 °F
Vlažnost: 92 % 38 % 65 %
Hitrost vetra: 4.3 mph 0 mph 1.2 mph
Sunki vetra: 9.6 mph - -
Veter:- - South
Zračni tlak: 30.2 in 30 in -
Padavine: 0 in    
Historical Graphs
 
 
Tabelarni podarki za Avgust 17, 2017
Čas Temperatura Točka rosišča Zračni tlak Veter Hitrost vetra Sunki vetra Vlažnost Intenziteta padavin (urna)
00:02 73.8 °F 59.5 °F 30.1 in ESE 3.1 mph 9.4 mph 61 % 0 in
00:07 73.8 °F 59.5 °F 30.1 in ESE 3.2 mph 9.4 mph 61 % 0 in
00:12 73.8 °F 59.5 °F 30.1 in ESE 3.4 mph 6.3 mph 61 % 0 in
00:17 73.9 °F 59.5 °F 30.1 in ESE 3 mph 7.6 mph 61 % 0 in
00:22 73.8 °F 59.5 °F 30.1 in SE 3.9 mph 7.6 mph 61 % 0 in
00:27 73.8 °F 59.5 °F 30.1 in SE 4.3 mph 7.6 mph 61 % 0 in
00:32 73.6 °F 59.4 °F 30.1 in SSE 3.2 mph 6.3 mph 61 % 0 in
00:37 73.4 °F 59.5 °F 30.1 in SSW 3.2 mph 6.3 mph 62 % 0 in
00:43 72.9 °F 59.5 °F 30.1 in SSW 3.5 mph 5.4 mph 63 % 0 in
00:48 72.5 °F 59.5 °F 30.1 in SW 3.8 mph 5.8 mph 64 % 0 in
00:53 72.1 °F 59.7 °F 30.1 in SW 3.7 mph 5.8 mph 65 % 0 in
00:58 71.8 °F 59.7 °F 30.1 in WSW 3.1 mph 4.7 mph 66 % 0 in
01:03 71.4 °F 59.9 °F 30.1 in SW 2.3 mph 3.6 mph 67 % 0 in
01:08 71.1 °F 60.1 °F 30.1 in SSW 0.8 mph 2.9 mph 68 % 0 in
01:13 70.7 °F 60.1 °F 30.1 in South 0.7 mph 3.8 mph 69 % 0 in
01:18 70.3 °F 60.1 °F 30.1 in South 0.6 mph 3.8 mph 70 % 0 in
01:23 70 °F 59.7 °F 30.1 in Calm     70 % 0 in
01:28 69.6 °F 60.3 °F 30.1 in Calm     72 % 0 in
01:33 69.4 °F 60.1 °F 30.1 in Calm     72 % 0 in
01:38 68.9 °F 60.3 °F 30.1 in Calm     74 % 0 in
01:43 68.7 °F 60.1 °F 30.1 in NE 0.5 mph 3.4 mph 74 % 0 in
01:48 68.4 °F 59.7 °F 30.1 in NE 0.6 mph 3.4 mph 74 % 0 in
01:53 68.2 °F 60.1 °F 30.1 in West 0.4 mph 2.5 mph 75 % 0 in
01:58 68 °F 60.3 °F 30.1 in WNW 0.8 mph 2.7 mph 76 % 0 in
02:03 68 °F 60.3 °F 30.1 in WNW 0.6 mph 2.7 mph 76 % 0 in
02:08 67.8 °F 60.6 °F 30.1 in NW 0.2 mph 2.7 mph 78 % 0 in
02:13 67.6 °F 60.4 °F 30.1 in NW 1 mph 3.4 mph 78 % 0 in
02:18 67.5 °F 60.4 °F 30.1 in NW 1.8 mph 3.4 mph 78 % 0 in
02:23 67.5 °F 60.6 °F 30.1 in NW 1 mph 2.5 mph 79 % 0 in
02:28 67.5 °F 60.6 °F 30.1 in West 1 mph 4.3 mph 79 % 0 in
02:33 67.5 °F 61.2 °F 30.1 in West 0.8 mph 4.3 mph 80 % 0 in
02:38 67.5 °F 61.2 °F 30.1 in NW 1 mph 3.1 mph 80 % 0 in
02:43 67.6 °F 61.2 °F 30.1 in NW 0.9 mph 3.1 mph 80 % 0 in
02:48 67.6 °F 61.2 °F 30.1 in Calm     80 % 0 in
02:53 67.6 °F 61.2 °F 30.1 in Calm     80 % 0 in
02:58 67.6 °F 61.5 °F 30.1 in Calm     81 % 0 in
03:03 67.6 °F 61.5 °F 30.1 in Calm     81 % 0 in
03:08 67.6 °F 61.5 °F 30.1 in Calm     81 % 0 in
03:13 67.6 °F 61.5 °F 30.1 in Calm     81 % 0 in
03:18 67.6 °F 61.9 °F 30.1 in Calm     82 % 0 in
03:23 67.6 °F 61.9 °F 30.1 in Calm   0.9 mph 82 % 0 in
03:28 67.6 °F 61.9 °F 30.1 in ENE 0.4 mph 2 mph 82 % 0 in
03:33 67.5 °F 61.9 °F 30.1 in ENE 0.4 mph 2 mph 82 % 0 in
03:38 67.5 °F 61.9 °F 30.1 in WSW 0.2 mph 2.5 mph 82 % 0 in
03:43 67.5 °F 61.9 °F 30.1 in South 0.7 mph 3.1 mph 82 % 0 in
03:48 67.5 °F 61.9 °F 30.1 in ENE 0.5 mph 3.1 mph 82 % 0 in
03:53 67.5 °F 62.1 °F 30.1 in Calm     83 % 0 in
03:58 67.3 °F 61.9 °F 30.1 in Calm     83 % 0 in
04:03 67.3 °F 61.9 °F 30.1 in Calm     83 % 0 in
04:08 67.3 °F 61.9 °F 30.1 in Calm     83 % 0 in
04:13 67.1 °F 61.9 °F 30.1 in Calm     83 % 0 in
04:18 67.1 °F 62.1 °F 30.1 in Calm     84 % 0 in
04:23 66.9 °F 61.9 °F 30.1 in Calm     84 % 0 in
04:29 66.9 °F 61.9 °F 30.1 in Calm     84 % 0 in
04:34 66.7 °F 62.1 °F 30.1 in Calm     85 % 0 in
04:39 66.7 °F 62.1 °F 30.1 in Calm     85 % 0 in
04:44 66.6 °F 61.9 °F 30.1 in Calm     85 % 0 in
04:49 66.6 °F 62.2 °F 30.1 in Calm     86 % 0 in
04:54 66.4 °F 61.7 °F 30.1 in Calm     85 % 0 in
04:59 66.2 °F 61.9 °F 30.1 in Calm     86 % 0 in
05:04 66.2 °F 61.9 °F 30.1 in Calm     86 % 0 in
05:09 66 °F 61.7 °F 30.1 in Calm     86 % 0 in
05:14 65.8 °F 61.9 °F 30.1 in Calm     87 % 0 in
05:23 65.5 °F 61.5 °F 30.1 in Calm     87 % 0 in
05:28 65.3 °F 61.3 °F 30.1 in Calm     87 % 0 in
05:33 65.1 °F 61.2 °F 30.1 in Calm     87 % 0 in
05:38 64.8 °F 60.8 °F 30.1 in Calm     87 % 0 in
05:43 64.6 °F 61 °F 30.1 in Calm   1.3 mph 88 % 0 in
05:48 64.4 °F 60.4 °F 30.1 in Calm   1.3 mph 87 % 0 in
05:53 64.2 °F 60.3 °F 30.1 in ESE 0.1 mph 2 mph 87 % 0 in
05:58 63.9 °F 60.3 °F 30.1 in ESE 0.1 mph 2 mph 88 % 0 in
06:03 63.7 °F 60.1 °F 30.1 in ESE 0.2 mph 2 mph 88 % 0 in
06:04 63.5 °F 59.9 °F 30.1 in ESE 0.2 mph 2 mph 88 % 0 in
06:09 63.5 °F 59.9 °F 30.1 in ESE 0.2 mph 2 mph 88 % 0 in
06:14 63.3 °F 59.7 °F 30.1 in Calm   1.1 mph 88 % 0 in
06:19 63.1 °F 59.7 °F 30.1 in ESE 0.2 mph 2.2 mph 89 % 0 in
06:24 63 °F 59.7 °F 30.1 in ESE 0.2 mph 2.2 mph 89 % 0 in
06:29 63 °F 59.7 °F 30.1 in Calm     89 % 0 in
06:34 63 °F 60.1 °F 30.1 in Calm     90 % 0 in
06:39 63 °F 60.1 °F 30.1 in Calm     90 % 0 in
06:44 63 °F 60.1 °F 30.1 in Calm     90 % 0 in
06:49 63 °F 60.1 °F 30.1 in Calm     90 % 0 in
06:54 63 °F 60.1 °F 30.1 in Calm     90 % 0 in
06:59 63 °F 60.1 °F 30.1 in Calm     90 % 0 in
07:04 63.1 °F 60.3 °F 30.1 in Calm     90 % 0 in
07:09 63.3 °F 60.6 °F 30.1 in Calm     91 % 0 in
07:14 63.5 °F 60.8 °F 30.1 in Calm     91 % 0 in
07:19 63.7 °F 61 °F 30.1 in Calm     91 % 0 in
07:24 64.2 °F 61.9 °F 30.1 in Calm     92 % 0 in
07:29 64.2 °F 61.9 °F 30.1 in Calm     92 % 0 in
07:34 64.4 °F 61.7 °F 30.2 in Calm     91 % 0 in
07:39 64.8 °F 62.1 °F 30.2 in Calm     91 % 0 in
07:44 65.1 °F 62.4 °F 30.2 in Calm     91 % 0 in
07:49 65.5 °F 62.8 °F 30.2 in ESE 0.2 mph 1.6 mph 91 % 0 in
07:54 65.7 °F 63 °F 30.2 in ESE 0.6 mph 2.5 mph 91 % 0 in
07:59 66.2 °F 63.1 °F 30.2 in ESE 0.8 mph 2.9 mph 90 % 0 in
08:04 66.7 °F 63.7 °F 30.2 in ESE 0.8 mph 2.9 mph 90 % 0 in
08:09 67.1 °F 63.7 °F 30.2 in ESE 0.7 mph 2.7 mph 89 % 0 in
08:14 67.3 °F 63.9 °F 30.2 in ESE 0.4 mph 1.6 mph 89 % 0 in
08:19 67.6 °F 64 °F 30.2 in ESE 0.1 mph 1.6 mph 88 % 0 in
08:24 68.2 °F 64.2 °F 30.2 in ESE 0.4 mph 2.2 mph 87 % 0 in
08:29 68.7 °F 64.8 °F 30.2 in ESE 0.8 mph 2.2 mph 87 % 0 in
08:34 69.1 °F 64.4 °F 30.2 in East 0.5 mph 2 mph 85 % 0 in
08:39 69.8 °F 65.1 °F 30.2 in East 0.1 mph 1.3 mph 85 % 0 in
08:44 70.5 °F 65.5 °F 30.2 in SSE 0.4 mph 2.7 mph 84 % 0 in
08:49 71.4 °F 66 °F 30.2 in SSE 1.2 mph 2.9 mph 83 % 0 in
08:54 72.3 °F 66.2 °F 30.2 in SE 2.1 mph 4.3 mph 81 % 0 in
08:59 72.9 °F 66.4 °F 30.2 in ESE 1.5 mph 4.3 mph 80 % 0 in
09:04 73.4 °F 66 °F 30.2 in SE 0.3 mph 2.5 mph 78 % 0 in
09:09 74.1 °F 66.4 °F 30.2 in ENE 0.2 mph 2 mph 77 % 0 in
09:14 74.7 °F 66.2 °F 30.2 in ESE 1 mph 2.7 mph 75 % 0 in
09:19 75.2 °F 65.8 °F 30.2 in SE 1.1 mph 2.7 mph 73 % 0 in
09:24 75.7 °F 66 °F 30.2 in SE 0.9 mph 3.1 mph 72 % 0 in
09:29 76.3 °F 65.8 °F 30.2 in ESE 1.1 mph 3.1 mph 70 % 0 in
09:34 76.5 °F 65.5 °F 30.2 in SE 0.7 mph 2.7 mph 69 % 0 in
09:39 77 °F 66 °F 30.2 in SSE 1.1 mph 3.4 mph 69 % 0 in
09:44 77.5 °F 66 °F 30.2 in SE 1.8 mph 3.6 mph 68 % 0 in
09:49 78.1 °F 65.8 °F 30.2 in SE 2.1 mph 4.3 mph 66 % 0 in
09:54 78.3 °F 65.1 °F 30.2 in SE 2.4 mph 4.7 mph 64 % 0 in
09:59 78.8 °F 64.8 °F 30.2 in ESE 1.9 mph 4.7 mph 62 % 0 in
10:04 78.8 °F 61.9 °F 30.2 in ESE 2.5 mph 6.5 mph 56 % 0 in
10:09 79 °F 63.3 °F 30.2 in ESE 3.3 mph 6.5 mph 59 % 0 in
10:14 79.5 °F 63.9 °F 30.2 in ESE 2.7 mph 7.2 mph 59 % 0 in
10:19 79.7 °F 63.1 °F 30.2 in ESE 3 mph 7.2 mph 57 % 0 in
10:24 80.1 °F 63.5 °F 30.2 in ESE 3.7 mph 6.3 mph 57 % 0 in
10:29 80.1 °F 63.5 °F 30.2 in ESE 3.4 mph 6.3 mph 57 % 0 in
10:34 80.2 °F 63.1 °F 30.2 in ESE 2.6 mph 6 mph 56 % 0 in
10:39 80.6 °F 63 °F 30.2 in ESE 2.8 mph 6 mph 55 % 0 in
10:44 81 °F 63.3 °F 30.2 in ESE 3.5 mph 6.3 mph 55 % 0 in
10:49 81.3 °F 63.1 °F 30.2 in ESE 3.7 mph 6.3 mph 54 % 0 in
10:54 81.5 °F 63.3 °F 30.2 in ESE 2.9 mph 6 mph 54 % 0 in
10:59 81.5 °F 63.3 °F 30.2 in ESE 2.1 mph 4.3 mph 54 % 0 in
11:04 81.7 °F 62.2 °F 30.2 in ESE 2.4 mph 5.8 mph 52 % 0 in
11:09 81.7 °F 62.2 °F 30.2 in East 2.5 mph 5.8 mph 52 % 0 in
11:14 81.9 °F 62.1 °F 30.2 in East 2.2 mph 4.3 mph 51 % 0 in
11:19 81.9 °F 62.4 °F 30.2 in East 2.2 mph 5.4 mph 52 % 0 in
11:24 82.2 °F 62.8 °F 30.2 in East 2 mph 6 mph 52 % 0 in
11:29 82.2 °F 62.8 °F 30.2 in ENE 3 mph 6.3 mph 52 % 0 in
11:34 82.4 °F 62.4 °F 30.2 in ENE 3.7 mph 6.3 mph 51 % 0 in
11:39 82.2 °F 62.8 °F 30.2 in East 2.8 mph 6.3 mph 52 % 0 in
11:44 82.4 °F 62.4 °F 30.2 in ESE 3 mph 6.3 mph 51 % 0 in
11:49 82.9 °F 63.5 °F 30.1 in SE 3.1 mph 6 mph 52 % 0 in
11:54 83.3 °F 63.3 °F 30.1 in ESE 2.7 mph 5.6 mph 51 % 0 in
11:59 83.5 °F 63.3 °F 30.1 in SE 3.2 mph 7.6 mph 51 % 0 in
12:04 83.7 °F 63.7 °F 30.1 in SSE 3.3 mph 7.6 mph 51 % 0 in
12:09 83.8 °F 62.6 °F 30.1 in SSW 2 mph 6.5 mph 49 % 0 in
12:14 84.2 °F 63.5 °F 30.1 in SSE 2.3 mph 6.5 mph 50 % 0 in
12:19 84.4 °F 63.7 °F 30.1 in SSE 3.2 mph 5.8 mph 50 % 0 in
12:24 84 °F 62.8 °F 30.1 in SW 2.6 mph 5.8 mph 49 % 0 in
12:29 84.4 °F 62.4 °F 30.1 in East 2.7 mph 5.8 mph 48 % 0 in
12:34 84.2 °F 62.4 °F 30.2 in East 2.2 mph 5.8 mph 48 % 0 in
12:39 84 °F 62.8 °F 30.2 in ESE 1.8 mph 3.6 mph 49 % 0 in
12:44 84.6 °F 62.8 °F 30.2 in East 2.3 mph 5.8 mph 48 % 0 in
12:49 84.4 °F 61.9 °F 30.1 in ENE 3.2 mph 6.5 mph 47 % 0 in
12:52 84.2 °F 62.4 °F 30.1 in East 3.3 mph 6.5 mph 48 % 0 in
12:57 84.6 °F 62.1 °F 30.1 in East 3.1 mph 5.4 mph 47 % 0 in
13:02 84.2 °F 61.9 °F 30.1 in East 2 mph 4 mph 47 % 0 in
13:07 84.9 °F 63 °F 30.1 in SE 2.2 mph 4.9 mph 48 % 0 in
13:12 85.3 °F 63.3 °F 30.1 in SE 3.4 mph 5.8 mph 48 % 0 in
13:17 85.5 °F 63 °F 30.1 in ESE 3.3 mph 5.8 mph 47 % 0 in
13:22 85.5 °F 63 °F 30.1 in West 2.7 mph 5.8 mph 47 % 0 in
13:27 85.6 °F 63.1 °F 30.1 in West 3.1 mph 5.8 mph 47 % 0 in
13:32 86.2 °F 63 °F 30.1 in SW 3.2 mph 5.8 mph 46 % 0 in
13:37 86.7 °F 62.8 °F 30.1 in South 2.5 mph 5.8 mph 45 % 0 in
13:42 86.5 °F 62.1 °F 30.1 in SSE 2.6 mph 4.7 mph 44 % 0 in
13:47 86.5 °F 62.1 °F 30.1 in SSE 2.2 mph 4 mph 44 % 0 in
13:52 86.7 °F 62.2 °F 30.2 in SSE 1.7 mph 5.6 mph 44 % 0 in
13:57 87.1 °F 61.9 °F 30.2 in SSE 2.8 mph 7.4 mph 43 % 0 in
14:02 87.1 °F 61.9 °F 30.2 in South 3.5 mph 7.4 mph 43 % 0 in
14:07 87.4 °F 61.5 °F 30.1 in South 3.1 mph 6.5 mph 42 % 0 in
14:12 87.6 °F 61 °F 30.1 in SE 3 mph 6.5 mph 41 % 0 in
14:17 87.4 °F 61.5 °F 30.1 in South 2.7 mph 5.4 mph 42 % 0 in
14:22 87.6 °F 61.7 °F 30.1 in WSW 2.4 mph 4.9 mph 42 % 0 in
14:27 87.4 °F 60.8 °F 30.1 in South 1.9 mph 3.6 mph 41 % 0 in
14:32 87.4 °F 60.8 °F 30.1 in East 2.3 mph 5.8 mph 41 % 0 in
14:37 87.8 °F 61.2 °F 30.1 in SE 3.1 mph 5.8 mph 41 % 0 in
14:42 87.8 °F 61.2 °F 30.1 in South 3.9 mph 9.6 mph 41 % 0 in
14:47 88 °F 60.6 °F 30.1 in South 3.9 mph 9.6 mph 40 % 0 in
14:52 88 °F 60.6 °F 30.1 in SSW 3.1 mph 5.8 mph 40 % 0 in
14:57 87.8 °F 60.4 °F 30.1 in WSW 3.8 mph 6.3 mph 40 % 0 in
15:02 88 °F 59.9 °F 30.1 in WSW 3.9 mph 6.3 mph 39 % 0 in
15:07 88 °F 60.6 °F 30.1 in ESE 3.2 mph 7.8 mph 40 % 0 in
15:12 88.2 °F 60.8 °F 30.1 in ESE 3.4 mph 7.8 mph 40 % 0 in
15:17 88.3 °F 60.3 °F 30.1 in SSE 2.8 mph 6 mph 39 % 0 in
15:22 88.5 °F 60.4 °F 30.1 in SE 1.6 mph 4.9 mph 39 % 0 in
15:27 88.5 °F 60.4 °F 30.1 in SSE 1.8 mph 4.9 mph 39 % 0 in
15:32 88.5 °F 60.4 °F 30.1 in WSW 2.6 mph 4.7 mph 39 % 0 in
15:37 88.3 °F 60.3 °F 30.1 in SW 2.6 mph 6.5 mph 39 % 0 in
15:42 88.2 °F 60.1 °F 30.1 in ESE 3.1 mph 6.5 mph 39 % 0 in
15:47 88.3 °F 60.3 °F 30.1 in SE 2.9 mph 6.3 mph 39 % 0 in
15:52 88.5 °F 60.4 °F 30.1 in South 2.1 mph 4.3 mph 39 % 0 in
15:57 88.7 °F 60.6 °F 30.1 in SSE 2.3 mph 4.7 mph 39 % 0 in
16:02 88.7 °F 60.6 °F 30.1 in East 2.2 mph 4.7 mph 39 % 0 in
16:07 88.7 °F 60.6 °F 30.1 in SE 2.6 mph 6.5 mph 39 % 0 in
16:08 88.7 °F 60.6 °F 30.1 in SE 2.6 mph 6.5 mph 39 % 0 in
16:13 88.9 °F 60.6 °F 30.1 in South 3.2 mph 6.5 mph 39 % 0 in
16:18 88.9 °F 60.1 °F 30.1 in SSE 3.4 mph 5.6 mph 38 % 0 in
16:23 88.7 °F 59.7 °F 30.1 in SE 2.1 mph 5.6 mph 38 % 0 in
16:28 88.7 °F 59.7 °F 30.1 in South 2 mph 5.6 mph 38 % 0 in
16:33 88.7 °F 59.7 °F 30.1 in SSW 3.1 mph 5.6 mph 38 % 0 in
16:38 88.7 °F 59.7 °F 30.1 in SSW 1.8 mph 4.3 mph 38 % 0 in
16:43 88.9 °F 60.1 °F 30.1 in SW 1 mph 2.9 mph 38 % 0 in
16:48 88.7 °F 59.7 °F 30.1 in SSW 0.8 mph 2.9 mph 38 % 0 in
16:53 89.1 °F 61 °F 30.1 in SSW 0.3 mph 2 mph 39 % 0 in
16:58 89.2 °F 60.3 °F 30.1 in South 0.8 mph 4 mph 38 % 0 in
17:03 88.9 °F 60.1 °F 30.1 in South 2.1 mph 4 mph 38 % 0 in
17:08 88.9 °F 60.1 °F 30.1 in SSE 3.1 mph 6.3 mph 38 % 0 in
17:13 89.1 °F 60.1 °F 30.1 in SE 3.5 mph 6.3 mph 38 % 0 in
17:18 89.1 °F 60.1 °F 30.1 in ESE 3.5 mph 5.8 mph 38 % 0 in
17:23 89.1 °F 60.1 °F 30.1 in ESE 3.5 mph 6 mph 38 % 0 in
17:28 88.7 °F 59.7 °F 30.1 in SE 2.2 mph 6 mph 38 % 0 in
17:29 88.7 °F 59.7 °F 30.1 in SE 2.2 mph 6 mph 38 % 0 in
17:34 88.9 °F 60.1 °F 30.1 in South 1.7 mph 4 mph 38 % 0 in
17:39 88.5 °F 59.7 °F 30.1 in South 2.2 mph 4.3 mph 38 % 0 in
17:44 88.3 °F 59.5 °F 30.1 in SSE 2 mph 4.3 mph 38 % 0 in
17:49 88.2 °F 59.4 °F 30.1 in SSE 1.2 mph 2.9 mph 38 % 0 in
17:54 87.8 °F 59 °F 30.1 in SE 0.6 mph 2.9 mph 38 % 0 in
17:59 87.1 °F 59.2 °F 30.1 in ESE 1.4 mph 4.9 mph 39 % 0 in
18:04 86.5 °F 57.9 °F 30 in ESE 2.4 mph 5.6 mph 38 % 0 in
18:09 85.8 °F 57.9 °F 30 in SSE 2.4 mph 5.6 mph 39 % 0 in
18:14 85.1 °F 57.4 °F 30 in South 1.7 mph 3.8 mph 39 % 0 in
18:19 84.4 °F 56.7 °F 30.1 in SSE 1.1 mph 3.1 mph 39 % 0 in
18:24 83.5 °F 57.4 °F 30.1 in SSE 0.7 mph 3.1 mph 41 % 0 in
18:29 82.9 °F 56.8 °F 30.1 in NW 0.7 mph 3.4 mph 41 % 0 in
18:34 81.9 °F 56.5 °F 30.1 in NW 0.7 mph 3.4 mph 42 % 0 in
18:39 81 °F 56.5 °F 30.1 in WNW 0.5 mph 2.5 mph 43 % 0 in
18:44 80.4 °F 56.5 °F 30.1 in NW 1.1 mph 2.5 mph 44 % 0 in
18:49 79.7 °F 56.5 °F 30 in NNW 1 mph 2.5 mph 45 % 0 in
18:54 79 °F 57.6 °F 30 in NNW 0.7 mph 2.5 mph 48 % 0 in
18:59 78.6 °F 58.5 °F 30 in NW 0.5 mph 2.5 mph 50 % 0 in
19:04 78.1 °F 57.9 °F 30 in NW 0.1 mph 1.3 mph 50 % 0 in
19:09 77.5 °F 58.5 °F 30 in NW 0.1 mph 1.3 mph 52 % 0 in
19:14 77 °F 58.6 °F 30 in NW 0.1 mph 2 mph 53 % 0 in
19:19 76.5 °F 59.5 °F 30.1 in WNW 0.4 mph 3.1 mph 56 % 0 in
19:24 75.9 °F 59.2 °F 30.1 in WNW 0.9 mph 3.1 mph 56 % 0 in
19:29 75.6 °F 58.8 °F 30.1 in NNW 1.2 mph 2.9 mph 56 % 0 in
19:34 75 °F 59.7 °F 30.1 in NNW 1.3 mph 3.4 mph 59 % 0 in
19:39 74.7 °F 59.4 °F 30.1 in NNW 1.3 mph 3.4 mph 59 % 0 in
19:44 74.1 °F 59.7 °F 30.1 in NNW 0.7 mph 3.1 mph 61 % 0 in
19:54 73.2 °F 59.9 °F 30 in NW 0.3 mph 2.9 mph 63 % 0 in
19:59 72.9 °F 60.1 °F 30 in WNW 0.5 mph 3.4 mph 64 % 0 in
20:04 72.5 °F 60.1 °F 30.1 in WNW 0.6 mph 3.4 mph 65 % 0 in
20:09 72 °F 60.4 °F 30.1 in WNW 0.1 mph 2 mph 67 % 0 in
20:14 71.6 °F 60.1 °F 30.1 in Calm     67 % 0 in
20:19 71.2 °F 60.1 °F 30.1 in Calm     68 % 0 in
20:24 70.9 °F 60.3 °F 30.1 in Calm     69 % 0 in
20:34 70.2 °F 59.9 °F 30.1 in Calm     70 % 0 in
20:39 70 °F 60.1 °F 30.1 in Calm     71 % 0 in
20:44 69.6 °F 59.7 °F 30.1 in Calm     71 % 0 in
20:49 69.3 °F 59.7 °F 30.1 in Calm     72 % 0 in
20:54 69.1 °F 59.7 °F 30.1 in Calm     72 % 0 in
20:59 68.7 °F 59.7 °F 30.1 in Calm     73 % 0 in
21:04 68.5 °F 59.9 °F 30.1 in Calm     74 % 0 in
21:09 68.4 °F 59.7 °F 30.1 in Calm     74 % 0 in
21:14 68.2 °F 60.1 °F 30.1 in Calm     75 % 0 in
21:19 68 °F 59.7 °F 30.1 in Calm     75 % 0 in
21:24 67.8 °F 60.1 °F 30.1 in Calm     76 % 0 in
21:29 67.6 °F 59.7 °F 30.1 in NW 0.1 mph 1.6 mph 76 % 0 in
21:34 67.5 °F 60.4 °F 30.1 in NW 0.1 mph 1.6 mph 78 % 0 in
21:39 67.3 °F 60.3 °F 30.1 in Calm     78 % 0 in
21:44 67.1 °F 60.1 °F 30.1 in Calm     78 % 0 in
21:49 66.9 °F 59.7 °F 30.1 in Calm     78 % 0 in
21:54 66.7 °F 59.7 °F 30.1 in Calm     78 % 0 in
22:00 66.6 °F 59.7 °F 30.1 in Calm   1.3 mph 79 % 0 in
22:05 66.2 °F 59.5 °F 30.1 in Calm   1.3 mph 79 % 0 in
22:10 66.2 °F 59.7 °F 30.1 in Calm     80 % 0 in
22:15 66.2 °F 59.7 °F 30.1 in Calm     80 % 0 in
22:20 66 °F 59.7 °F 30.1 in Calm     80 % 0 in
22:25 65.8 °F 59.7 °F 30.1 in Calm     81 % 0 in
22:30 65.7 °F 59.7 °F 30.1 in Calm     81 % 0 in
22:35 65.7 °F 59.7 °F 30.1 in Calm     81 % 0 in
22:40 65.5 °F 59.5 °F 30.1 in Calm     81 % 0 in
22:45 65.5 °F 59.5 °F 30.1 in Calm     81 % 0 in
22:50 65.3 °F 59.4 °F 30.1 in Calm     81 % 0 in
22:55 65.1 °F 59.2 °F 30.1 in Calm     81 % 0 in
23:00 64.9 °F 59.4 °F 30.1 in Calm     82 % 0 in
23:05 64.8 °F 59.2 °F 30.1 in Calm     82 % 0 in
23:10 64.8 °F 59.2 °F 30.1 in Calm     82 % 0 in
23:15 64.6 °F 59 °F 30.1 in Calm     82 % 0 in
23:20 64.4 °F 58.8 °F 30.1 in Calm     82 % 0 in
23:25 64.2 °F 58.8 °F 30.1 in Calm     83 % 0 in
23:30 64.2 °F 58.8 °F 30.1 in Calm     83 % 0 in
23:35 64.2 °F 58.8 °F 30.1 in Calm     83 % 0 in
23:40 64.2 °F 58.8 °F 30.1 in Calm     83 % 0 in
23:45 64 °F 59.2 °F 30.1 in Calm     84 % 0 in
23:50 64 °F 59.2 °F 30.1 in Calm     84 % 0 in
23:52 63.9 °F 59.4 °F 30.1 in Calm     85 % 0 in
23:57 63.9 °F 59.4 °F 30.1 in Calm     85 % 0 in
Vremenska postaja Senovo
Podatki zbrani iz Weather Underground - 3 mb

Script developed by  Jim McMurry - jmcmurry@mwt.net Adapted for the template by  Wim van der Kuil - Leuven-Template.eu

Vremenski podatki so objavljeni na:

WeatherCloud

Weather Underground

AWEKAS

HAMweather, WeatherForYou, PWS Weather

MapView

Geostik

Slovenia weather network

Oprema, ki se uporablja:

Vremenski program
Cumulus

Cumulus